CCR1023 SBFL-SBGR
Flight info
| Callsign | CCR1023 |
|---|---|
| Flight time | 1h 0m |
| Altitude | 37000 |
| Route | ILVOR UZ69 XONUG UZ121 BUXUK |
| Aircraft | B737/M-SDE3FGHIJ4J5M1RWXYZ/LB1D1 |
Departure
| Time | 2026-04-20 22:52 |
|---|---|
| Airport | Hercílio Luz International Airport (SBFL) |
Arrival
| Time | 2026-04-20 23:53 |
|---|---|
| Airport | São Paulo/Guarulhos–Governor André Franco Montoro International Airport (SBGR) |
| Time | Latitude | Longitude | Altitude | Speed | Heading |
|---|---|---|---|---|---|
| 2026-04-20 22:32 | -27.67247 | -48.54614 | 27 ft | 0 kts | 211° |
| 2026-04-20 22:45 | -27.67242 | -48.54611 | 27 ft | 2 kts | 211° |
| 2026-04-20 22:45 | -27.67229 | -48.54602 | 27 ft | 2 kts | 211° |
| 2026-04-20 22:46 | -27.67217 | -48.54592 | 27 ft | 2 kts | 238° |
| 2026-04-20 22:46 | -27.67214 | -48.54578 | 27 ft | 2 kts | 289° |
| 2026-04-20 22:46 | -27.67222 | -48.54563 | 27 ft | 2 kts | 302° |
| 2026-04-20 22:46 | -27.67225 | -48.54556 | 27 ft | 0 kts | 302° |
| 2026-04-20 22:49 | -27.67200 | -48.54602 | 27 ft | 15 kts | 307° |
| 2026-04-20 22:49 | -27.67114 | -48.54614 | 27 ft | 11 kts | 29° |
| 2026-04-20 22:50 | -27.67048 | -48.54571 | 27 ft | 15 kts | 30° |
| 2026-04-20 22:50 | -27.67002 | -48.54540 | 27 ft | 0 kts | 31° |
| 2026-04-20 22:51 | -27.66957 | -48.54510 | 27 ft | 16 kts | 31° |
| 2026-04-20 22:51 | -27.66925 | -48.54476 | 27 ft | 5 kts | 112° |
| 2026-04-20 22:51 | -27.66944 | -48.54438 | 27 ft | 3 kts | 120° |
| 2026-04-20 22:51 | -27.66962 | -48.54404 | 27 ft | 23 kts | 121° |
| 2026-04-20 22:52 | -27.67184 | -48.53990 | 27 ft | 99 kts | 121° |
| 2026-04-20 22:52 | -27.67655 | -48.53118 | 78 ft | 154 kts | 121° |
| 2026-04-20 22:52 | -27.68254 | -48.52042 | 621 ft | 164 kts | 122° |
| 2026-04-20 22:52 | -27.68834 | -48.50971 | 1468 ft | 156 kts | 121° |
| 2026-04-20 22:53 | -27.69360 | -48.49986 | 2061 ft | 167 kts | 121° |
| 2026-04-20 22:53 | -27.69707 | -48.48650 | 2422 ft | 193 kts | 90° |
| 2026-04-20 22:53 | -27.69283 | -48.47154 | 2835 ft | 213 kts | 57° |
| 2026-04-20 22:53 | -27.68186 | -48.45981 | 3598 ft | 221 kts | 34° |
| 2026-04-20 22:54 | -27.67078 | -48.45301 | 4446 ft | 222 kts | 29° |
| 2026-04-20 22:54 | -27.65633 | -48.44432 | 5341 ft | 231 kts | 28° |
| 2026-04-20 22:54 | -27.64173 | -48.43566 | 5727 ft | 241 kts | 28° |
| 2026-04-20 22:54 | -27.62685 | -48.42683 | 5959 ft | 242 kts | 28° |
| 2026-04-20 22:55 | -27.61203 | -48.41803 | 6006 ft | 245 kts | 28° |
| 2026-04-20 22:55 | -27.59700 | -48.40911 | 6002 ft | 243 kts | 28° |
| 2026-04-20 22:55 | -27.58314 | -48.40089 | 6072 ft | 240 kts | 28° |
| 2026-04-20 22:55 | -27.56741 | -48.39157 | 6344 ft | 261 kts | 28° |
| 2026-04-20 22:56 | -27.55009 | -48.38324 | 6972 ft | 280 kts | 15° |
| 2026-04-20 22:56 | -27.53044 | -48.38170 | 7868 ft | 287 kts | 357° |
| 2026-04-20 22:56 | -27.51037 | -48.38418 | 8807 ft | 293 kts | 353° |
| 2026-04-20 22:56 | -27.49008 | -48.38759 | 9712 ft | 298 kts | 351° |
| 2026-04-20 22:57 | -27.46935 | -48.39137 | 10603 ft | 303 kts | 351° |
| 2026-04-20 22:57 | -27.44831 | -48.39522 | 11492 ft | 308 kts | 351° |
| 2026-04-20 22:57 | -27.42695 | -48.39911 | 12363 ft | 313 kts | 351° |
| 2026-04-20 22:57 | -27.40553 | -48.40302 | 13215 ft | 318 kts | 351° |
| 2026-04-20 22:58 | -27.38407 | -48.40693 | 14043 ft | 322 kts | 351° |
| 2026-04-20 22:58 | -27.36176 | -48.41099 | 14913 ft | 327 kts | 351° |
| 2026-04-20 22:58 | -27.33922 | -48.41509 | 15823 ft | 330 kts | 350° |
| 2026-04-20 22:58 | -27.31636 | -48.41925 | 16709 ft | 334 kts | 350° |
| 2026-04-20 22:59 | -27.29328 | -48.42345 | 17575 ft | 338 kts | 350° |
| 2026-04-20 22:59 | -27.26990 | -48.42770 | 18425 ft | 342 kts | 350° |
| 2026-04-20 22:59 | -27.24622 | -48.43200 | 19258 ft | 346 kts | 350° |
| 2026-04-20 22:59 | -27.22228 | -48.43634 | 20051 ft | 351 kts | 350° |
| 2026-04-20 23:00 | -27.19804 | -48.44075 | 20837 ft | 356 kts | 349° |
| 2026-04-20 23:00 | -27.17345 | -48.44523 | 21602 ft | 360 kts | 349° |
| 2026-04-20 23:00 | -27.14857 | -48.44975 | 22344 ft | 364 kts | 349° |
| 2026-04-20 23:00 | -27.12350 | -48.45431 | 23082 ft | 367 kts | 349° |
| 2026-04-20 23:01 | -27.09819 | -48.45890 | 23820 ft | 370 kts | 349° |
| 2026-04-20 23:01 | -27.07250 | -48.46356 | 24524 ft | 374 kts | 349° |
| 2026-04-20 23:01 | -27.04674 | -48.46824 | 25181 ft | 378 kts | 349° |
| 2026-04-20 23:01 | -27.02063 | -48.47297 | 25816 ft | 382 kts | 348° |
| 2026-04-20 23:02 | -26.99429 | -48.47774 | 26433 ft | 386 kts | 348° |
| 2026-04-20 23:02 | -26.96790 | -48.48251 | 27028 ft | 389 kts | 348° |
| 2026-04-20 23:02 | -26.94100 | -48.48738 | 27610 ft | 393 kts | 348° |
| 2026-04-20 23:02 | -26.91389 | -48.49228 | 28172 ft | 396 kts | 348° |
| 2026-04-20 23:03 | -26.88659 | -48.49722 | 28704 ft | 400 kts | 348° |
| 2026-04-20 23:03 | -26.85889 | -48.50222 | 29211 ft | 404 kts | 348° |
| 2026-04-20 23:03 | -26.84002 | -48.50562 | 29555 ft | 406 kts | 348° |
| 2026-04-20 23:03 | -26.80517 | -48.51191 | 30169 ft | 411 kts | 348° |
| 2026-04-20 23:04 | -26.77687 | -48.51702 | 30649 ft | 414 kts | 348° |
| 2026-04-20 23:04 | -26.74832 | -48.52216 | 31094 ft | 417 kts | 348° |
| 2026-04-20 23:04 | -26.71956 | -48.52736 | 31535 ft | 420 kts | 348° |
| 2026-04-20 23:04 | -26.69048 | -48.53261 | 31901 ft | 425 kts | 348° |
| 2026-04-20 23:05 | -26.66119 | -48.53788 | 32299 ft | 428 kts | 348° |
| 2026-04-20 23:05 | -26.63174 | -48.54318 | 32698 ft | 431 kts | 348° |
| 2026-04-20 23:05 | -26.60209 | -48.54851 | 33079 ft | 433 kts | 348° |
| 2026-04-20 23:05 | -26.57220 | -48.55388 | 33449 ft | 436 kts | 348° |
| 2026-04-20 23:06 | -26.54215 | -48.55927 | 33805 ft | 439 kts | 348° |
| 2026-04-20 23:06 | -26.51196 | -48.56469 | 34126 ft | 441 kts | 348° |
| 2026-04-20 23:06 | -26.48148 | -48.57015 | 34450 ft | 444 kts | 348° |
| 2026-04-20 23:06 | -26.45094 | -48.57560 | 34765 ft | 446 kts | 349° |
| 2026-04-20 23:07 | -26.42028 | -48.57921 | 35083 ft | 450 kts | 354° |
| 2026-04-20 23:07 | -26.38848 | -48.57987 | 35389 ft | 454 kts | 359° |
| 2026-04-20 23:07 | -26.35856 | -48.57731 | 35670 ft | 457 kts | 4° |
| 2026-04-20 23:07 | -26.32643 | -48.57326 | 35962 ft | 459 kts | 4° |
| 2026-04-20 23:08 | -26.29462 | -48.56948 | 36236 ft | 461 kts | 3° |
| 2026-04-20 23:08 | -26.26267 | -48.56576 | 36511 ft | 462 kts | 3° |
| 2026-04-20 23:08 | -26.23058 | -48.56216 | 36773 ft | 464 kts | 3° |
| 2026-04-20 23:08 | -26.19844 | -48.55855 | 37020 ft | 466 kts | 3° |
| 2026-04-20 23:09 | -26.16649 | -48.55495 | 37169 ft | 469 kts | 3° |
| 2026-04-20 23:09 | -26.13381 | -48.55128 | 37174 ft | 473 kts | 3° |
| 2026-04-20 23:09 | -26.06825 | -48.54389 | 37177 ft | 472 kts | 3° |
| 2026-04-20 23:10 | -26.00308 | -48.53656 | 37177 ft | 471 kts | 3° |
| 2026-04-20 23:10 | -25.93768 | -48.52923 | 37176 ft | 471 kts | 3° |
| 2026-04-20 23:11 | -25.87289 | -48.52197 | 37175 ft | 470 kts | 3° |
| 2026-04-20 23:11 | -25.80782 | -48.51469 | 37175 ft | 470 kts | 2° |
| 2026-04-20 23:12 | -25.74272 | -48.50741 | 37174 ft | 469 kts | 2° |
| 2026-04-20 23:12 | -25.67781 | -48.50014 | 37174 ft | 469 kts | 2° |
| 2026-04-20 23:13 | -25.61393 | -48.49300 | 37172 ft | 468 kts | 2° |
| 2026-04-20 23:13 | -25.54917 | -48.48578 | 37173 ft | 468 kts | 2° |
| 2026-04-20 23:14 | -25.48821 | -48.47899 | 37172 ft | 468 kts | 2° |
| 2026-04-20 23:14 | -25.42332 | -48.47176 | 37172 ft | 468 kts | 2° |
| 2026-04-20 23:15 | -25.36935 | -48.46574 | 37172 ft | 468 kts | 2° |
| 2026-04-20 23:15 | -25.29576 | -48.45753 | 37174 ft | 468 kts | 2° |
| 2026-04-20 23:16 | -25.24127 | -48.45147 | 37174 ft | 469 kts | 2° |
| 2026-04-20 23:16 | -25.16574 | -48.44307 | 37174 ft | 469 kts | 2° |
| 2026-04-20 23:17 | -25.11495 | -48.43456 | 37175 ft | 473 kts | 10° |
| 2026-04-20 23:17 | -25.05166 | -48.41353 | 37177 ft | 476 kts | 16° |
| 2026-04-20 23:18 | -24.98882 | -48.39041 | 37177 ft | 475 kts | 16° |
| 2026-04-20 23:18 | -24.92598 | -48.36749 | 37179 ft | 476 kts | 16° |
| 2026-04-20 23:19 | -24.86302 | -48.34466 | 37179 ft | 476 kts | 16° |
| 2026-04-20 23:19 | -24.80010 | -48.32191 | 37179 ft | 476 kts | 16° |
| 2026-04-20 23:20 | -24.73754 | -48.29925 | 37180 ft | 476 kts | 16° |
| 2026-04-20 23:20 | -24.67457 | -48.27651 | 37179 ft | 476 kts | 16° |
| 2026-04-20 23:21 | -24.61160 | -48.25376 | 37179 ft | 476 kts | 16° |
| 2026-04-20 23:21 | -24.54851 | -48.23104 | 37179 ft | 476 kts | 16° |
| 2026-04-20 23:22 | -24.48546 | -48.20838 | 37180 ft | 476 kts | 16° |
| 2026-04-20 23:22 | -24.42281 | -48.18590 | 37180 ft | 477 kts | 16° |
| 2026-04-20 23:23 | -24.36882 | -48.16645 | 37179 ft | 477 kts | 17° |
| 2026-04-20 23:23 | -24.30811 | -48.13624 | 37177 ft | 482 kts | 26° |
| 2026-04-20 23:24 | -24.24897 | -48.10108 | 37171 ft | 484 kts | 27° |
| 2026-04-20 23:24 | -24.19482 | -48.06902 | 37165 ft | 486 kts | 27° |
| 2026-04-20 23:25 | -24.13517 | -48.03385 | 37165 ft | 488 kts | 27° |
| 2026-04-20 23:25 | -24.07513 | -47.99851 | 37156 ft | 490 kts | 28° |
| 2026-04-20 23:26 | -24.04568 | -47.98119 | 36793 ft | 487 kts | 28° |
| 2026-04-20 23:26 | -24.01785 | -47.96474 | 36068 ft | 487 kts | 28° |
| 2026-04-20 23:26 | -23.99052 | -47.94863 | 35346 ft | 488 kts | 28° |
| 2026-04-20 23:26 | -23.96063 | -47.93105 | 34541 ft | 488 kts | 28° |
| 2026-04-20 23:27 | -23.93068 | -47.91348 | 33722 ft | 488 kts | 28° |
| 2026-04-20 23:27 | -23.90073 | -47.89593 | 32945 ft | 487 kts | 28° |
| 2026-04-20 23:27 | -23.87099 | -47.87851 | 32330 ft | 482 kts | 28° |
| 2026-04-20 23:27 | -23.84164 | -47.86134 | 31724 ft | 477 kts | 29° |
| 2026-04-20 23:28 | -23.81247 | -47.84428 | 31125 ft | 472 kts | 29° |
| 2026-04-20 23:28 | -23.78414 | -47.82661 | 30537 ft | 466 kts | 33° |
| 2026-04-20 23:28 | -23.75755 | -47.80667 | 29954 ft | 461 kts | 38° |
| 2026-04-20 23:28 | -23.73318 | -47.78435 | 29363 ft | 455 kts | 44° |
| 2026-04-20 23:29 | -23.71066 | -47.76048 | 28770 ft | 449 kts | 46° |
| 2026-04-20 23:29 | -23.68848 | -47.73667 | 28177 ft | 444 kts | 45° |
| 2026-04-20 23:29 | -23.66643 | -47.71331 | 27583 ft | 440 kts | 45° |
| 2026-04-20 23:29 | -23.64459 | -47.69023 | 27047 ft | 434 kts | 45° |
| 2026-04-20 23:30 | -23.62356 | -47.66816 | 26735 ft | 425 kts | 45° |
| 2026-04-20 23:30 | -23.60220 | -47.64564 | 26418 ft | 418 kts | 45° |
| 2026-04-20 23:30 | -23.58133 | -47.62366 | 26106 ft | 418 kts | 45° |
| 2026-04-20 23:30 | -23.56032 | -47.60158 | 25793 ft | 421 kts | 45° |
| 2026-04-20 23:31 | -23.53920 | -47.57941 | 25472 ft | 420 kts | 45° |
| 2026-04-20 23:31 | -23.51819 | -47.55737 | 25155 ft | 418 kts | 46° |
| 2026-04-20 23:31 | -23.49729 | -47.53547 | 24839 ft | 416 kts | 46° |
| 2026-04-20 23:31 | -23.47651 | -47.51371 | 24527 ft | 414 kts | 46° |
| 2026-04-20 23:32 | -23.45659 | -47.49285 | 24226 ft | 412 kts | 46° |
| 2026-04-20 23:32 | -23.43846 | -47.47387 | 23952 ft | 410 kts | 46° |
| 2026-04-20 23:32 | -23.41820 | -47.45268 | 23645 ft | 408 kts | 46° |
| 2026-04-20 23:32 | -23.39778 | -47.43133 | 23337 ft | 406 kts | 46° |
| 2026-04-20 23:33 | -23.37744 | -47.41004 | 23039 ft | 404 kts | 46° |
| 2026-04-20 23:33 | -23.35723 | -47.38883 | 22784 ft | 403 kts | 46° |
| 2026-04-20 23:33 | -23.33704 | -47.36769 | 22528 ft | 402 kts | 46° |
| 2026-04-20 23:33 | -23.31691 | -47.34665 | 22275 ft | 400 kts | 46° |
| 2026-04-20 23:34 | -23.29685 | -47.32569 | 22023 ft | 398 kts | 46° |
| 2026-04-20 23:34 | -23.27687 | -47.30485 | 21774 ft | 397 kts | 46° |
| 2026-04-20 23:34 | -23.25698 | -47.28410 | 21524 ft | 396 kts | 46° |
| 2026-04-20 23:34 | -23.23713 | -47.26341 | 21273 ft | 394 kts | 46° |
| 2026-04-20 23:35 | -23.21732 | -47.24277 | 21025 ft | 392 kts | 46° |
| 2026-04-20 23:35 | -23.17835 | -47.20219 | 20523 ft | 388 kts | 46° |
| 2026-04-20 23:35 | -23.15884 | -47.18188 | 20273 ft | 387 kts | 46° |
| 2026-04-20 23:36 | -23.13952 | -47.16159 | 20025 ft | 385 kts | 47° |
| 2026-04-20 23:36 | -23.12123 | -47.14048 | 19781 ft | 382 kts | 51° |
| 2026-04-20 23:36 | -23.10357 | -47.11906 | 19541 ft | 381 kts | 50° |
| 2026-04-20 23:36 | -23.08573 | -47.09782 | 19303 ft | 380 kts | 50° |
| 2026-04-20 23:37 | -23.06792 | -47.07665 | 19023 ft | 380 kts | 50° |
| 2026-04-20 23:37 | -23.04995 | -47.05548 | 18471 ft | 383 kts | 50° |
| 2026-04-20 23:37 | -23.03187 | -47.03421 | 17904 ft | 382 kts | 50° |
| 2026-04-20 23:37 | -23.01395 | -47.01314 | 17344 ft | 379 kts | 50° |
| 2026-04-20 23:38 | -22.99616 | -46.99224 | 16792 ft | 375 kts | 50° |
| 2026-04-20 23:38 | -22.97874 | -46.97175 | 16320 ft | 370 kts | 50° |
| 2026-04-20 23:38 | -22.96118 | -46.95111 | 15775 ft | 366 kts | 50° |
| 2026-04-20 23:38 | -22.94423 | -46.93119 | 15284 ft | 362 kts | 49° |
| 2026-04-20 23:39 | -22.92725 | -46.91126 | 14799 ft | 357 kts | 49° |
| 2026-04-20 23:39 | -22.91051 | -46.89161 | 14332 ft | 352 kts | 49° |
| 2026-04-20 23:39 | -22.89417 | -46.87244 | 14168 ft | 338 kts | 49° |
| 2026-04-20 23:39 | -22.87844 | -46.85399 | 14137 ft | 327 kts | 49° |
| 2026-04-20 23:40 | -22.86409 | -46.83530 | 14020 ft | 319 kts | 63° |
| 2026-04-20 23:40 | -22.85836 | -46.81282 | 13975 ft | 308 kts | 91° |
| 2026-04-20 23:40 | -22.86315 | -46.79046 | 13802 ft | 306 kts | 119° |
| 2026-04-20 23:40 | -22.87726 | -46.77356 | 13520 ft | 306 kts | 148° |
| 2026-04-20 23:41 | -22.89715 | -46.76584 | 13242 ft | 306 kts | 170° |
| 2026-04-20 23:41 | -22.91803 | -46.76256 | 12962 ft | 306 kts | 169° |
| 2026-04-20 23:41 | -22.93875 | -46.75753 | 12683 ft | 303 kts | 164° |
| 2026-04-20 23:41 | -22.95864 | -46.75015 | 12408 ft | 300 kts | 158° |
| 2026-04-20 23:42 | -22.97674 | -46.74081 | 12144 ft | 299 kts | 151° |
| 2026-04-20 23:42 | -22.99442 | -46.72904 | 11867 ft | 298 kts | 147° |
| 2026-04-20 23:42 | -23.01165 | -46.71651 | 11586 ft | 297 kts | 146° |
| 2026-04-20 23:42 | -23.02834 | -46.70342 | 11305 ft | 296 kts | 143° |
| 2026-04-20 23:43 | -23.04466 | -46.68989 | 11028 ft | 294 kts | 142° |
| 2026-04-20 23:43 | -23.06078 | -46.67632 | 10752 ft | 293 kts | 142° |
| 2026-04-20 23:43 | -23.07665 | -46.66287 | 10477 ft | 289 kts | 142° |
| 2026-04-20 23:43 | -23.09233 | -46.64951 | 10205 ft | 284 kts | 142° |
| 2026-04-20 23:44 | -23.10774 | -46.63634 | 9939 ft | 280 kts | 142° |
| 2026-04-20 23:44 | -23.12037 | -46.62552 | 9724 ft | 277 kts | 142° |
| 2026-04-20 23:44 | -23.13545 | -46.61258 | 9462 ft | 276 kts | 142° |
| 2026-04-20 23:44 | -23.15042 | -46.59971 | 9202 ft | 275 kts | 142° |
| 2026-04-20 23:45 | -23.16551 | -46.58673 | 8939 ft | 274 kts | 142° |
| 2026-04-20 23:45 | -23.18049 | -46.57384 | 8676 ft | 272 kts | 142° |
| 2026-04-20 23:45 | -23.19508 | -46.56128 | 8419 ft | 264 kts | 141° |
| 2026-04-20 23:45 | -23.20938 | -46.54959 | 8158 ft | 257 kts | 147° |
| 2026-04-20 23:46 | -23.22384 | -46.54071 | 7809 ft | 256 kts | 153° |
| 2026-04-20 23:46 | -23.23972 | -46.53222 | 7525 ft | 250 kts | 154° |
| 2026-04-20 23:46 | -23.25518 | -46.52405 | 7290 ft | 244 kts | 154° |
| 2026-04-20 23:46 | -23.27076 | -46.51773 | 7077 ft | 233 kts | 167° |
| 2026-04-20 23:47 | -23.28639 | -46.51729 | 6800 ft | 220 kts | 189° |
| 2026-04-20 23:47 | -23.30053 | -46.52228 | 6562 ft | 208 kts | 199° |
| 2026-04-20 23:47 | -23.31357 | -46.52788 | 6330 ft | 196 kts | 199° |
| 2026-04-20 23:47 | -23.32596 | -46.53300 | 6110 ft | 185 kts | 198° |
| 2026-04-20 23:48 | -23.33747 | -46.53761 | 5921 ft | 173 kts | 198° |
| 2026-04-20 23:48 | -23.34859 | -46.54205 | 5719 ft | 166 kts | 198° |
| 2026-04-20 23:48 | -23.35940 | -46.54653 | 5489 ft | 168 kts | 202° |
| 2026-04-20 23:48 | -23.36898 | -46.55381 | 5307 ft | 170 kts | 220° |
| 2026-04-20 23:49 | -23.37732 | -46.56288 | 5138 ft | 168 kts | 222° |
| 2026-04-20 23:49 | -23.38631 | -46.57064 | 4997 ft | 159 kts | 208° |
| 2026-04-20 23:49 | -23.39630 | -46.57477 | 4756 ft | 152 kts | 187° |
| 2026-04-20 23:49 | -23.40639 | -46.57518 | 4587 ft | 139 kts | 175° |
| 2026-04-20 23:50 | -23.41583 | -46.57348 | 4407 ft | 137 kts | 161° |
| 2026-04-20 23:50 | -23.42389 | -46.56937 | 4255 ft | 137 kts | 149° |
| 2026-04-20 23:50 | -23.43119 | -46.56394 | 4104 ft | 139 kts | 140° |
| 2026-04-20 23:50 | -23.43709 | -46.55647 | 3926 ft | 139 kts | 125° |
| 2026-04-20 23:51 | -23.44179 | -46.54739 | 3734 ft | 136 kts | 116° |
| 2026-04-20 23:51 | -23.44421 | -46.53750 | 3516 ft | 136 kts | 98° |
| 2026-04-20 23:51 | -23.44422 | -46.52802 | 3341 ft | 140 kts | 90° |
| 2026-04-20 23:51 | -23.44315 | -46.51745 | 3119 ft | 140 kts | 83° |
| 2026-04-20 23:52 | -23.44090 | -46.50735 | 2929 ft | 137 kts | 77° |
| 2026-04-20 23:52 | -23.43833 | -46.49812 | 2767 ft | 137 kts | 76° |
| 2026-04-20 23:52 | -23.43555 | -46.48773 | 2577 ft | 135 kts | 76° |
| 2026-04-20 23:52 | -23.43300 | -46.47825 | 2469 ft | 128 kts | 77° |
| 2026-04-20 23:53 | -23.43091 | -46.47043 | 2467 ft | 78 kts | 73° |
| 2026-04-20 23:53 | -23.43015 | -46.46775 | 2467 ft | 15 kts | 49° |
| 2026-04-20 23:53 | -23.42911 | -46.46768 | 2467 ft | 20 kts | 348° |
| 2026-04-20 23:53 | -23.42838 | -46.46790 | 2467 ft | 9 kts | 343° |
| 2026-04-20 23:54 | -23.42794 | -46.46804 | 2467 ft | 4 kts | 340° |
| 2026-04-20 23:54 | -23.42782 | -46.46847 | 2467 ft | 10 kts | 256° |
| 2026-04-20 23:54 | -23.42801 | -46.46923 | 2467 ft | 9 kts | 254° |
| 2026-04-20 23:54 | -23.42814 | -46.46972 | 2467 ft | 4 kts | 254° |
| 2026-04-20 23:55 | -23.42822 | -46.47002 | 2467 ft | 8 kts | 254° |
| 2026-04-20 23:55 | -23.42847 | -46.47100 | 2467 ft | 17 kts | 254° |
| 2026-04-20 23:55 | -23.42886 | -46.47246 | 2467 ft | 24 kts | 253° |
| 2026-04-20 23:55 | -23.42927 | -46.47391 | 2467 ft | 9 kts | 252° |
| 2026-04-20 23:56 | -23.42944 | -46.47452 | 2467 ft | 11 kts | 253° |
| 2026-04-20 23:56 | -23.42974 | -46.47564 | 2467 ft | 18 kts | 254° |
| 2026-04-20 23:56 | -23.43005 | -46.47680 | 2467 ft | 10 kts | 253° |
| 2026-04-20 23:56 | -23.43023 | -46.47747 | 2467 ft | 8 kts | 253° |
| 2026-04-20 23:57 | -23.42977 | -46.47812 | 2467 ft | 17 kts | 348° |
| 2026-04-20 23:57 | -23.42906 | -46.47827 | 2467 ft | 11 kts | 349° |
| 2026-04-20 23:57 | -23.42860 | -46.47857 | 2467 ft | 6 kts | 321° |
| 2026-04-20 23:57 | -23.42823 | -46.47871 | 2467 ft | 9 kts | 349° |
| 2026-04-20 23:58 | -23.42791 | -46.47897 | 2467 ft | 10 kts | 266° |
| 2026-04-20 23:58 | -23.42794 | -46.47951 | 2467 ft | 1 kts | 264° |
| 2026-04-20 23:58 | -23.42794 | -46.47954 | 2467 ft | 0 kts | 264° |